createdAt,value
2017-09-09T00:00:14.890Z,15.15
2017-09-09T00:01:15.464Z,15.17
2017-09-09T00:02:16.038Z,15.17
2017-09-09T00:03:16.614Z,15.14
2017-09-09T00:04:17.188Z,15.09
2017-09-09T00:05:17.762Z,15.11
2017-09-09T00:06:18.336Z,15.09
2017-09-09T00:07:18.908Z,15.02
2017-09-09T00:08:19.482Z,14.99
2017-09-09T00:09:20.056Z,14.99
2017-09-09T00:10:20.631Z,15.03
2017-09-09T00:11:21.216Z,14.94
2017-09-09T00:12:21.801Z,14.89
2017-09-09T00:13:22.376Z,14.88
2017-09-09T00:14:22.949Z,14.91
2017-09-09T00:15:23.525Z,14.88
2017-09-09T00:16:24.099Z,14.89
2017-09-09T00:17:24.673Z,14.78
2017-09-09T00:18:25.246Z,14.85
2017-09-09T00:19:25.834Z,14.84
2017-09-09T00:20:26.415Z,14.85
2017-09-09T00:21:26.987Z,14.79
2017-09-09T00:22:27.560Z,14.66
2017-09-09T00:23:28.134Z,14.78
2017-09-09T00:24:28.708Z,14.78
2017-09-09T00:25:29.282Z,14.73
2017-09-09T00:26:29.855Z,14.79
2017-09-09T00:27:30.428Z,14.69
2017-09-09T00:28:31.004Z,14.73
2017-09-09T00:29:31.578Z,14.77
2017-09-09T00:30:32.152Z,14.78
2017-09-09T00:31:32.728Z,14.66
2017-09-09T00:32:33.301Z,14.70
2017-09-09T00:33:33.874Z,14.66
2017-09-09T00:34:34.446Z,14.66
2017-09-09T00:35:35.022Z,14.69
2017-09-09T00:36:35.594Z,14.63
2017-09-09T00:37:36.168Z,14.68
2017-09-09T00:38:36.740Z,14.66
2017-09-09T00:39:37.313Z,14.68
2017-09-09T00:40:37.887Z,14.65
2017-09-09T00:41:38.460Z,14.68
2017-09-09T00:42:39.033Z,14.66
2017-09-09T00:43:39.607Z,14.66
2017-09-09T00:44:40.183Z,14.66
2017-09-09T00:45:40.758Z,14.66
2017-09-09T00:46:41.333Z,14.63
2017-09-09T00:47:41.906Z,14.54
2017-09-09T00:48:42.481Z,14.63
2017-09-09T00:49:43.055Z,14.59
2017-09-09T00:50:43.626Z,14.62
2017-09-09T00:51:44.201Z,14.60
2017-09-09T00:52:44.773Z,14.54
2017-09-09T00:53:45.346Z,14.65
2017-09-09T00:54:45.919Z,14.55
2017-09-09T00:55:46.493Z,14.68
2017-09-09T00:56:47.065Z,14.65
2017-09-09T00:57:47.650Z,14.58
2017-09-09T00:58:48.223Z,14.60
2017-09-09T00:59:48.798Z,14.62
2017-09-09T01:00:49.371Z,14.54
2017-09-09T01:01:49.945Z,14.58
2017-09-09T01:02:50.518Z,14.62
2017-09-09T01:03:51.092Z,14.58
2017-09-09T01:04:51.664Z,14.55
2017-09-09T01:05:52.240Z,14.60
2017-09-09T01:06:52.815Z,14.70
2017-09-09T01:07:53.390Z,14.62
2017-09-09T01:08:53.965Z,14.58
2017-09-09T01:09:54.538Z,14.63
2017-09-09T01:10:55.113Z,14.58
2017-09-09T01:11:55.686Z,14.51
2017-09-09T01:12:56.260Z,14.60
2017-09-09T01:13:56.833Z,14.48
2017-09-09T01:14:57.406Z,14.58
2017-09-09T01:15:57.980Z,14.55
2017-09-09T01:16:58.553Z,14.58
2017-09-09T01:17:59.126Z,14.58
2017-09-09T01:18:59.698Z,14.65
2017-09-09T01:20:00.272Z,14.58
2017-09-09T01:21:00.845Z,14.54
2017-09-09T01:22:01.422Z,14.55
2017-09-09T01:23:01.995Z,14.60
2017-09-09T01:24:02.570Z,14.55
2017-09-09T01:25:03.144Z,14.58
2017-09-09T01:26:03.719Z,14.55
2017-09-09T01:27:04.292Z,14.58
2017-09-09T01:28:04.865Z,14.62
2017-09-09T01:29:05.449Z,14.62
2017-09-09T01:30:06.023Z,14.65
2017-09-09T01:31:06.606Z,14.60
2017-09-09T01:32:07.181Z,14.53
2017-09-09T01:33:07.753Z,14.55
2017-09-09T01:34:08.328Z,14.55
2017-09-09T01:35:08.902Z,14.62
2017-09-09T01:36:09.478Z,14.58
2017-09-09T01:37:10.051Z,14.60
2017-09-09T01:38:10.627Z,14.60
2017-09-09T01:39:11.200Z,14.59
2017-09-09T01:40:11.775Z,14.60
2017-09-09T01:41:12.348Z,14.62
2017-09-09T01:42:12.922Z,14.60
2017-09-09T01:43:13.495Z,14.55
2017-09-09T01:44:14.069Z,14.47
2017-09-09T01:45:14.641Z,14.58
2017-09-09T01:46:15.215Z,14.65
2017-09-09T01:47:15.790Z,14.54
2017-09-09T01:48:16.365Z,14.54
2017-09-09T01:49:16.940Z,14.58
2017-09-09T01:50:17.514Z,14.53
2017-09-09T01:51:18.088Z,14.45
2017-09-09T01:52:18.662Z,14.60
2017-09-09T01:53:19.235Z,14.53
2017-09-09T01:54:19.808Z,14.54
2017-09-09T01:55:20.383Z,14.45
2017-09-09T01:56:20.955Z,14.54
2017-09-09T01:57:21.528Z,14.47
2017-09-09T01:58:22.102Z,14.41
2017-09-09T01:59:22.676Z,14.43
2017-09-09T02:00:23.252Z,14.43
2017-09-09T02:01:23.827Z,14.53
2017-09-09T02:02:24.402Z,14.45
2017-09-09T02:03:24.974Z,14.40
2017-09-09T02:04:25.557Z,14.43
2017-09-09T02:05:26.133Z,14.48
2017-09-09T02:06:26.710Z,14.40
2017-09-09T02:07:27.282Z,14.51
2017-09-09T02:08:27.868Z,14.45
2017-09-09T02:09:28.441Z,14.32
2017-09-09T02:10:29.025Z,14.45
2017-09-09T02:11:29.599Z,14.44
2017-09-09T02:12:30.174Z,14.36
2017-09-09T02:13:30.745Z,14.35
2017-09-09T02:14:31.319Z,14.29
2017-09-09T02:15:31.894Z,14.28
2017-09-09T02:16:32.466Z,14.30
2017-09-09T02:17:33.050Z,14.29
2017-09-09T02:18:33.623Z,14.30
2017-09-09T02:19:34.198Z,14.23
2017-09-09T02:20:34.770Z,14.28
2017-09-09T02:21:35.375Z,14.17
2017-09-09T02:22:35.915Z,14.12
2017-09-09T02:23:36.488Z,14.15
2017-09-09T02:24:37.061Z,14.11
2017-09-09T02:25:37.634Z,14.08
2017-09-09T02:26:38.208Z,14.18
2017-09-09T02:27:38.783Z,14.15
2017-09-09T02:28:39.359Z,13.96
2017-09-09T02:29:39.932Z,14.03
2017-09-09T02:30:40.507Z,13.96
2017-09-09T02:31:41.092Z,14.07
2017-09-09T02:32:41.677Z,14.03
2017-09-09T02:33:42.241Z,14.07
2017-09-09T02:34:42.815Z,13.96
2017-09-09T02:35:43.390Z,13.99
2017-09-09T02:36:43.963Z,13.95
2017-09-09T02:37:44.538Z,14.00
2017-09-09T02:38:45.107Z,13.93
2017-09-09T02:39:45.681Z,13.87
2017-09-09T02:40:46.254Z,13.90
2017-09-09T02:41:46.840Z,13.99
2017-09-09T02:42:47.415Z,13.92
2017-09-09T02:43:47.988Z,13.92
2017-09-09T02:44:48.563Z,13.81
2017-09-09T02:45:49.139Z,13.89
2017-09-09T02:46:49.706Z,13.89
2017-09-09T02:47:50.278Z,13.92
2017-09-09T02:48:50.852Z,13.93
2017-09-09T02:49:51.424Z,13.79
2017-09-09T02:50:51.998Z,13.83
2017-09-09T02:51:52.571Z,13.85
2017-09-09T02:52:53.148Z,13.77
2017-09-09T02:53:53.728Z,13.78
2017-09-09T02:54:54.302Z,13.78
2017-09-09T02:55:54.876Z,13.79
2017-09-09T02:56:55.447Z,13.87
2017-09-09T02:57:56.021Z,13.79
2017-09-09T02:58:56.597Z,13.81
2017-09-09T02:59:57.168Z,13.74
2017-09-09T03:00:57.751Z,13.79
2017-09-09T03:01:58.323Z,13.74
2017-09-09T03:02:58.898Z,13.67
2017-09-09T03:03:59.470Z,13.77
2017-09-09T03:05:00.044Z,13.78
2017-09-09T03:06:00.616Z,13.74
2017-09-09T03:07:01.189Z,13.75
2017-09-09T03:08:01.769Z,13.77
2017-09-09T03:09:02.334Z,13.75
2017-09-09T03:10:02.909Z,13.72
2017-09-09T03:11:03.487Z,13.77
2017-09-09T03:12:04.055Z,13.75
2017-09-09T03:13:04.629Z,13.71
2017-09-09T03:14:05.205Z,13.75
2017-09-09T03:15:05.789Z,13.75
2017-09-09T03:16:06.361Z,13.75
2017-09-09T03:17:06.935Z,13.63
2017-09-09T03:18:07.509Z,13.71
2017-09-09T03:19:08.084Z,13.78
2017-09-09T03:20:08.657Z,13.77
2017-09-09T03:21:09.232Z,13.74
2017-09-09T03:22:09.804Z,13.71
2017-09-09T03:23:10.378Z,13.67
2017-09-09T03:24:10.952Z,13.67
2017-09-09T03:25:11.528Z,13.70
2017-09-09T03:26:12.110Z,13.63
2017-09-09T03:27:12.684Z,13.75
2017-09-09T03:28:13.258Z,13.60
2017-09-09T03:29:13.833Z,13.63
2017-09-09T03:30:14.407Z,13.75
2017-09-09T03:31:14.981Z,13.65
2017-09-09T03:32:15.552Z,13.62
2017-09-09T03:33:16.126Z,13.70
2017-09-09T03:34:16.700Z,13.63
2017-09-09T03:35:17.272Z,13.75
2017-09-09T03:36:17.845Z,13.65
2017-09-09T03:37:18.419Z,13.63
2017-09-09T03:38:18.993Z,13.60
2017-09-09T03:39:19.569Z,13.60
2017-09-09T03:40:20.142Z,13.68
2017-09-09T03:41:20.717Z,13.68
2017-09-09T03:42:21.302Z,13.65
2017-09-09T03:43:21.876Z,13.65
2017-09-09T03:44:22.450Z,13.72
2017-09-09T03:45:23.023Z,13.65
2017-09-09T03:46:23.597Z,13.63
2017-09-09T03:47:24.170Z,13.65
2017-09-09T03:48:24.745Z,13.70
2017-09-09T03:49:25.318Z,13.63
2017-09-09T03:50:25.890Z,13.65
2017-09-09T03:51:26.463Z,13.57
2017-09-09T03:52:27.036Z,13.70
2017-09-09T03:53:27.610Z,13.60
2017-09-09T03:54:28.184Z,13.63
2017-09-09T03:55:28.759Z,13.60
2017-09-09T03:56:29.343Z,13.62
2017-09-09T03:57:29.926Z,13.65
2017-09-09T03:58:30.501Z,13.67
2017-09-09T03:59:31.074Z,13.63
2017-09-09T04:00:31.648Z,13.59
2017-09-09T04:01:32.221Z,13.70
2017-09-09T04:02:32.795Z,13.56
2017-09-09T04:03:33.367Z,13.68
2017-09-09T04:04:33.940Z,13.62
2017-09-09T04:05:34.516Z,13.57
2017-09-09T04:06:35.091Z,13.54
2017-09-09T04:07:35.661Z,13.54
2017-09-09T04:08:36.235Z,13.65
2017-09-09T04:09:36.809Z,13.59
2017-09-09T04:10:37.414Z,13.62
2017-09-09T04:11:37.956Z,13.57
2017-09-09T04:12:38.529Z,13.57
2017-09-09T04:13:39.103Z,13.53
2017-09-09T04:14:39.674Z,13.56
2017-09-09T04:15:40.247Z,13.54
2017-09-09T04:16:40.820Z,13.54
2017-09-09T04:17:41.393Z,13.59
2017-09-09T04:18:41.965Z,13.52
2017-09-09T04:19:42.538Z,13.59
2017-09-09T04:20:43.112Z,13.57
2017-09-09T04:21:43.684Z,13.42
2017-09-09T04:22:44.271Z,13.53
2017-09-09T04:23:44.833Z,13.59
2017-09-09T04:24:45.449Z,13.54
2017-09-09T04:25:45.991Z,13.53
2017-09-09T04:26:46.574Z,13.57
2017-09-09T04:27:47.154Z,13.60
2017-09-09T04:28:47.720Z,13.54
2017-09-09T04:29:48.303Z,13.52
2017-09-09T04:30:48.866Z,13.54
2017-09-09T04:31:49.440Z,13.62
2017-09-09T04:32:50.013Z,13.50
2017-09-09T04:33:50.596Z,13.59
2017-09-09T04:34:51.172Z,13.53
2017-09-09T04:35:51.756Z,13.56
2017-09-09T04:36:52.339Z,13.62
2017-09-09T04:37:52.912Z,13.60
2017-09-09T04:38:53.484Z,13.57
2017-09-09T04:39:54.058Z,13.57
2017-09-09T04:40:54.643Z,13.56
2017-09-09T04:41:55.215Z,13.54
2017-09-09T04:42:55.788Z,13.62
2017-09-09T04:43:56.359Z,13.57
2017-09-09T04:44:56.942Z,13.41
2017-09-09T04:45:57.517Z,13.53
2017-09-09T04:46:58.099Z,13.52
2017-09-09T04:47:58.683Z,13.52
2017-09-09T04:48:59.258Z,13.52
2017-09-09T04:49:59.842Z,13.57
2017-09-09T04:51:00.416Z,13.42
2017-09-09T04:52:00.993Z,13.54
2017-09-09T04:53:01.566Z,13.46
2017-09-09T04:54:02.141Z,13.59
2017-09-09T04:55:02.715Z,13.50
2017-09-09T04:56:03.299Z,13.59
2017-09-09T04:57:03.881Z,13.56
2017-09-09T04:58:04.454Z,13.57
2017-09-09T04:59:05.028Z,13.57
2017-09-09T05:00:05.599Z,13.52
2017-09-09T05:01:06.175Z,13.53
2017-09-09T05:02:06.756Z,13.54
2017-09-09T05:03:07.328Z,13.67
2017-09-09T05:04:07.905Z,13.50
2017-09-09T05:05:08.478Z,13.44
2017-09-09T05:06:09.050Z,13.39
2017-09-09T05:07:09.623Z,13.49
2017-09-09T05:08:10.206Z,13.50
2017-09-09T05:09:10.781Z,13.54
2017-09-09T05:10:11.356Z,13.52
2017-09-09T05:11:11.940Z,13.52
2017-09-09T05:12:12.523Z,13.52
2017-09-09T05:13:13.097Z,13.53
2017-09-09T05:14:13.671Z,13.54
2017-09-09T05:15:14.247Z,13.44
2017-09-09T05:16:14.821Z,13.60
2017-09-09T05:17:15.408Z,13.57
2017-09-09T05:18:15.983Z,13.56
2017-09-09T05:19:16.557Z,13.52
2017-09-09T05:20:17.140Z,13.54
2017-09-09T05:21:17.713Z,13.53
2017-09-09T05:22:18.288Z,13.59
2017-09-09T05:23:18.862Z,13.50
2017-09-09T05:24:19.437Z,13.57
2017-09-09T05:25:20.014Z,13.54
2017-09-09T05:26:20.597Z,13.56
2017-09-09T05:27:21.183Z,13.62
2017-09-09T05:28:21.756Z,13.49
2017-09-09T05:29:22.331Z,13.52
2017-09-09T05:30:22.905Z,13.53
2017-09-09T05:31:23.481Z,13.54
2017-09-09T05:32:24.055Z,13.42
2017-09-09T05:33:24.630Z,13.49
2017-09-09T05:34:25.206Z,13.52
2017-09-09T05:35:25.778Z,13.52
2017-09-09T05:36:26.351Z,13.56
2017-09-09T05:37:26.925Z,13.50
2017-09-09T05:38:27.501Z,13.54
2017-09-09T05:39:28.077Z,13.56
2017-09-09T05:40:28.660Z,13.59
2017-09-09T05:41:29.236Z,13.56
2017-09-09T05:42:29.810Z,13.57
2017-09-09T05:43:30.385Z,13.49
2017-09-09T05:44:30.972Z,13.42
2017-09-09T05:45:31.557Z,13.59
2017-09-09T05:46:32.137Z,13.49
2017-09-09T05:47:32.708Z,13.59
2017-09-09T05:48:33.283Z,13.52
2017-09-09T05:49:33.857Z,13.56
2017-09-09T05:50:34.431Z,13.53
2017-09-09T05:51:35.004Z,13.50
2017-09-09T05:52:35.577Z,13.50
2017-09-09T05:53:36.149Z,13.49
2017-09-09T05:54:36.723Z,13.49
2017-09-09T05:55:37.299Z,13.56
2017-09-09T05:56:37.877Z,13.52
2017-09-09T05:57:38.454Z,13.50
2017-09-09T05:58:39.023Z,13.50
2017-09-09T05:59:39.596Z,13.52
2017-09-09T06:00:40.169Z,13.52
2017-09-09T06:01:40.754Z,13.54
2017-09-09T06:02:41.327Z,13.44
2017-09-09T06:03:41.901Z,13.50
2017-09-09T06:04:42.475Z,13.42
2017-09-09T06:05:43.048Z,13.49
2017-09-09T06:06:43.621Z,13.41
2017-09-09T06:07:44.196Z,13.57
2017-09-09T06:08:44.772Z,13.52
2017-09-09T06:09:45.348Z,13.47
2017-09-09T06:10:45.923Z,13.46
2017-09-09T06:11:46.496Z,13.50
2017-09-09T06:12:47.071Z,13.47
2017-09-09T06:13:47.645Z,13.50
2017-09-09T06:14:48.230Z,13.33
2017-09-09T06:15:48.805Z,13.56
2017-09-09T06:16:49.378Z,13.53
2017-09-09T06:17:49.955Z,13.52
2017-09-09T06:18:50.526Z,13.46
2017-09-09T06:19:51.099Z,13.42
2017-09-09T06:20:51.684Z,13.54
2017-09-09T06:21:52.256Z,13.47
2017-09-09T06:22:52.830Z,13.54
2017-09-09T06:23:53.404Z,13.53
2017-09-09T06:24:53.979Z,13.38
2017-09-09T06:25:54.555Z,13.42
2017-09-09T06:26:55.128Z,13.42
2017-09-09T06:27:55.703Z,13.46
2017-09-09T06:28:56.276Z,13.47
2017-09-09T06:29:56.851Z,13.39
2017-09-09T06:30:57.425Z,13.46
2017-09-09T06:31:58.000Z,13.47
2017-09-09T06:32:58.576Z,13.47
2017-09-09T06:33:59.150Z,13.42
2017-09-09T06:34:59.725Z,13.53
2017-09-09T06:36:00.297Z,13.49
2017-09-09T06:37:00.872Z,13.44
2017-09-09T06:38:01.445Z,13.38
2017-09-09T06:39:02.021Z,13.52
2017-09-09T06:40:02.596Z,13.42
2017-09-09T06:41:03.169Z,13.47
2017-09-09T06:42:03.745Z,13.52
2017-09-09T06:43:04.317Z,13.42
2017-09-09T06:44:04.890Z,13.44
2017-09-09T06:45:05.464Z,13.44
2017-09-09T06:46:06.036Z,13.33
2017-09-09T06:47:06.609Z,13.46
2017-09-09T06:48:07.184Z,13.47
2017-09-09T06:49:07.770Z,13.52
2017-09-09T06:50:08.344Z,13.39
2017-09-09T06:51:08.918Z,13.37
2017-09-09T06:52:09.494Z,13.47
2017-09-09T06:53:10.070Z,13.46
2017-09-09T06:54:10.647Z,13.37
2017-09-09T06:55:11.220Z,13.53
2017-09-09T06:56:11.795Z,13.42
2017-09-09T06:57:12.372Z,13.52
2017-09-09T06:58:12.947Z,13.38
2017-09-09T06:59:13.525Z,13.39
2017-09-09T07:00:14.098Z,13.50
2017-09-09T07:01:14.670Z,13.54
2017-09-09T07:02:15.245Z,13.46
2017-09-09T07:03:15.819Z,13.54
2017-09-09T07:04:16.396Z,13.59
2017-09-09T07:05:16.971Z,13.72
2017-09-09T07:06:17.547Z,13.49
2017-09-09T07:07:18.121Z,13.57
2017-09-09T07:08:18.695Z,13.65
2017-09-09T07:09:19.272Z,13.68
2017-09-09T07:10:19.847Z,13.67
2017-09-09T07:11:20.423Z,13.67
2017-09-09T07:12:21.001Z,13.70
2017-09-09T07:13:21.573Z,13.60
2017-09-09T07:14:22.147Z,13.54
2017-09-09T07:15:22.724Z,13.62
2017-09-09T07:16:23.301Z,13.62
2017-09-09T07:17:23.887Z,13.65
2017-09-09T07:18:24.473Z,13.71
2017-09-09T07:19:25.048Z,13.75
2017-09-09T07:20:25.625Z,13.63
2017-09-09T07:21:26.208Z,13.67
2017-09-09T07:22:26.785Z,13.63
2017-09-09T07:23:27.361Z,13.67
2017-09-09T07:24:27.937Z,13.77
2017-09-09T07:25:28.522Z,13.71
2017-09-09T07:26:29.099Z,13.71
2017-09-09T07:27:29.673Z,13.87
2017-09-09T07:28:30.260Z,13.77
2017-09-09T07:29:30.837Z,13.95
2017-09-09T07:30:31.412Z,13.81
2017-09-09T07:31:31.989Z,13.86
2017-09-09T07:32:32.563Z,13.83
2017-09-09T07:33:33.138Z,13.86
2017-09-09T07:34:33.716Z,13.93
2017-09-09T07:35:34.291Z,13.92
2017-09-09T07:36:34.866Z,13.89
2017-09-09T07:37:35.452Z,13.90
2017-09-09T07:38:36.029Z,13.97
2017-09-09T07:39:36.612Z,13.89
2017-09-09T07:40:37.191Z,13.95
2017-09-09T07:41:37.764Z,13.89
2017-09-09T07:42:38.340Z,13.92
2017-09-09T07:43:38.914Z,13.96
2017-09-09T07:44:39.488Z,13.90
2017-09-09T07:45:40.076Z,13.93
2017-09-09T07:46:40.651Z,13.96
2017-09-09T07:47:41.227Z,13.86
2017-09-09T07:48:41.804Z,13.97
2017-09-09T07:49:42.379Z,13.89
2017-09-09T07:50:42.956Z,13.96
2017-09-09T07:51:43.531Z,14.04
2017-09-09T07:52:44.107Z,14.07
2017-09-09T07:53:44.694Z,14.07
2017-09-09T07:54:45.283Z,14.12
2017-09-09T07:55:45.858Z,14.23
2017-09-09T07:56:46.435Z,14.22
2017-09-09T07:57:47.028Z,14.17
2017-09-09T07:58:47.596Z,14.25
2017-09-09T07:59:48.171Z,14.29
2017-09-09T08:00:48.747Z,14.15
2017-09-09T08:01:49.324Z,14.17
2017-09-09T08:02:49.902Z,14.11
2017-09-09T08:03:50.476Z,14.17
2017-09-09T08:04:51.051Z,14.17
2017-09-09T08:05:51.628Z,14.30
2017-09-09T08:06:52.206Z,14.25
2017-09-09T08:07:52.786Z,14.20
2017-09-09T08:08:53.361Z,14.30
2017-09-09T08:09:53.938Z,14.29
2017-09-09T08:10:54.516Z,14.35
2017-09-09T08:11:55.091Z,14.44
2017-09-09T08:12:55.671Z,14.43
2017-09-09T08:13:56.245Z,14.54
2017-09-09T08:14:56.824Z,14.48
2017-09-09T08:15:57.402Z,14.50
2017-09-09T08:16:57.978Z,14.47
2017-09-09T08:17:58.552Z,14.65
2017-09-09T08:18:59.130Z,14.78
2017-09-09T08:19:59.707Z,14.82
2017-09-09T08:21:00.285Z,15.15
2017-09-09T08:22:00.861Z,15.15
2017-09-09T08:23:01.439Z,15.18
2017-09-09T08:24:02.017Z,15.06
2017-09-09T08:25:02.594Z,15.04
2017-09-09T08:26:03.173Z,15.07
2017-09-09T08:27:03.757Z,15.11
2017-09-09T08:28:04.329Z,15.14
2017-09-09T08:29:04.918Z,15.11
2017-09-09T08:30:05.498Z,14.94
2017-09-09T08:31:06.073Z,14.84
2017-09-09T08:32:06.659Z,15.04
2017-09-09T08:33:07.227Z,14.69
2017-09-09T08:34:07.803Z,14.97
2017-09-09T08:35:08.382Z,14.97
2017-09-09T08:36:08.958Z,14.96
2017-09-09T08:37:09.535Z,14.86
2017-09-09T08:38:10.109Z,14.92
2017-09-09T08:39:10.685Z,14.97
2017-09-09T08:40:11.264Z,14.73
2017-09-09T08:41:11.838Z,14.85
2017-09-09T08:42:12.416Z,14.73
2017-09-09T08:43:12.992Z,14.81
2017-09-09T08:44:13.580Z,14.81
2017-09-09T08:45:14.157Z,14.73
2017-09-09T08:46:14.734Z,14.63
2017-09-09T08:47:15.312Z,14.65
2017-09-09T08:48:15.890Z,14.72
2017-09-09T08:49:16.468Z,14.68
2017-09-09T08:50:17.043Z,14.84
2017-09-09T08:51:17.624Z,14.94
2017-09-09T08:52:18.200Z,14.86
2017-09-09T08:53:18.789Z,14.91
2017-09-09T08:54:19.366Z,14.97
2017-09-09T08:55:19.956Z,14.91
2017-09-09T08:56:20.534Z,14.84
2017-09-09T08:57:21.123Z,15.03
2017-09-09T08:58:21.702Z,14.96
2017-09-09T08:59:22.277Z,14.99
2017-09-09T09:00:22.860Z,15.04
2017-09-09T09:01:23.434Z,15.02
2017-09-09T09:02:24.007Z,15.06
2017-09-09T09:03:24.586Z,14.85
2017-09-09T09:04:25.162Z,14.79
2017-09-09T09:05:25.739Z,14.70
2017-09-09T09:06:26.320Z,14.77
2017-09-09T09:07:26.894Z,14.78
2017-09-09T09:08:27.472Z,14.78
2017-09-09T09:09:28.050Z,14.92
2017-09-09T09:10:28.626Z,14.91
2017-09-09T09:11:29.204Z,14.85
2017-09-09T09:12:29.791Z,14.89
2017-09-09T09:13:30.369Z,14.89
2017-09-09T09:14:30.947Z,14.88
2017-09-09T09:15:31.522Z,14.86
2017-09-09T09:16:32.102Z,14.77
2017-09-09T09:17:32.676Z,14.60
2017-09-09T09:18:33.253Z,14.68
2017-09-09T09:19:33.830Z,14.72
2017-09-09T09:20:34.412Z,14.68
2017-09-09T09:21:34.994Z,14.88
2017-09-09T09:22:35.571Z,14.85
2017-09-09T09:23:36.159Z,14.97
2017-09-09T09:24:36.736Z,15.00
2017-09-09T09:25:37.313Z,14.97
2017-09-09T09:26:37.892Z,14.89
2017-09-09T09:27:38.480Z,15.02
2017-09-09T09:28:39.057Z,14.89
2017-09-09T09:29:39.635Z,14.97
2017-09-09T09:30:40.211Z,14.88
2017-09-09T09:31:40.789Z,14.82
2017-09-09T09:32:41.364Z,14.92
2017-09-09T09:33:41.941Z,15.02
2017-09-09T09:34:42.518Z,14.91
2017-09-09T09:35:43.094Z,14.91
2017-09-09T09:36:43.670Z,14.94
2017-09-09T09:37:44.247Z,14.88
2017-09-09T09:38:44.822Z,14.81
2017-09-09T09:39:45.400Z,14.81
2017-09-09T09:40:45.974Z,14.70
2017-09-09T09:41:46.550Z,14.68
2017-09-09T09:42:47.124Z,14.77
2017-09-09T09:43:47.699Z,14.77
2017-09-09T09:44:48.288Z,14.69
2017-09-09T09:45:48.877Z,14.58
2017-09-09T09:46:49.452Z,14.58
2017-09-09T09:47:50.028Z,14.60
2017-09-09T09:48:50.605Z,14.55
2017-09-09T09:49:51.180Z,14.55
2017-09-09T09:50:51.759Z,14.65
2017-09-09T09:51:52.337Z,14.58
2017-09-09T09:52:52.912Z,14.62
2017-09-09T09:53:53.491Z,14.65
2017-09-09T09:54:54.068Z,14.69
2017-09-09T09:55:54.645Z,14.96
2017-09-09T09:56:55.223Z,15.09
2017-09-09T09:57:55.799Z,15.10
2017-09-09T09:58:56.376Z,15.28
2017-09-09T09:59:56.953Z,15.15
2017-09-09T10:00:57.529Z,15.43
2017-09-09T10:01:58.105Z,15.43
2017-09-09T10:02:58.682Z,15.46
2017-09-09T10:03:59.261Z,15.54
2017-09-09T10:04:59.838Z,15.62
2017-09-09T10:06:00.430Z,15.82
2017-09-09T10:07:01.003Z,15.82
2017-09-09T10:08:01.580Z,15.91
2017-09-09T10:09:02.157Z,15.94
2017-09-09T10:10:02.735Z,15.88
2017-09-09T10:11:03.312Z,15.65
2017-09-09T10:12:03.889Z,15.65
2017-09-09T10:13:04.465Z,15.54
2017-09-09T10:14:05.043Z,15.59
2017-09-09T10:15:05.622Z,15.68
2017-09-09T10:16:06.200Z,15.72
2017-09-09T10:17:06.776Z,15.68
2017-09-09T10:18:07.355Z,15.59
2017-09-09T10:19:07.932Z,15.46
2017-09-09T10:20:08.521Z,15.36
2017-09-09T10:21:09.100Z,15.43
2017-09-09T10:22:09.676Z,15.35
2017-09-09T10:23:10.253Z,15.44
2017-09-09T10:24:10.832Z,15.36
2017-09-09T10:25:11.421Z,15.21
2017-09-09T10:26:12.009Z,15.19
2017-09-09T10:27:12.584Z,15.27
2017-09-09T10:28:13.159Z,15.36
2017-09-09T10:29:13.737Z,15.43
2017-09-09T10:30:14.315Z,15.37
2017-09-09T10:31:14.891Z,15.42
2017-09-09T10:32:15.469Z,15.43
2017-09-09T10:33:16.046Z,15.43
2017-09-09T10:34:16.623Z,15.39
2017-09-09T10:35:17.202Z,15.58
2017-09-09T10:36:17.779Z,15.65
2017-09-09T10:37:18.367Z,15.80
2017-09-09T10:38:18.943Z,15.97
2017-09-09T10:39:19.521Z,15.95
2017-09-09T10:40:20.108Z,15.95
2017-09-09T10:41:20.677Z,16.04
2017-09-09T10:42:21.252Z,15.97
2017-09-09T10:43:21.830Z,15.82
2017-09-09T10:44:22.407Z,15.76
2017-09-09T10:45:22.984Z,15.86
2017-09-09T10:46:23.564Z,16.10
2017-09-09T10:47:24.139Z,16.24
2017-09-09T10:48:24.717Z,16.32
2017-09-09T10:49:25.295Z,16.23
2017-09-09T10:50:25.872Z,16.41
2017-09-09T10:51:26.450Z,16.39
2017-09-09T10:52:27.027Z,16.23
2017-09-09T10:53:27.605Z,16.42
2017-09-09T10:54:28.184Z,16.56
2017-09-09T10:55:28.770Z,16.74
2017-09-09T10:56:29.357Z,16.60
2017-09-09T10:57:29.927Z,16.76
2017-09-09T10:58:30.505Z,16.90
2017-09-09T10:59:31.082Z,16.86
2017-09-09T11:00:31.662Z,16.84
2017-09-09T11:01:32.239Z,16.83
2017-09-09T11:02:32.819Z,17.02
2017-09-09T11:03:33.395Z,16.75
2017-09-09T11:04:33.974Z,16.78
2017-09-09T11:05:34.554Z,16.60
2017-09-09T11:06:35.131Z,16.71
2017-09-09T11:07:35.709Z,16.74
2017-09-09T11:08:36.289Z,16.76
2017-09-09T11:09:36.868Z,16.71
2017-09-09T11:10:37.445Z,16.47
2017-09-09T11:11:38.023Z,16.43
2017-09-09T11:12:38.602Z,16.46
2017-09-09T11:13:39.182Z,16.60
2017-09-09T11:14:39.759Z,16.71
2017-09-09T11:15:40.336Z,16.60
2017-09-09T11:16:40.926Z,16.57
2017-09-09T11:17:41.522Z,16.47
2017-09-09T11:18:42.092Z,16.47
2017-09-09T11:19:42.671Z,16.47
2017-09-09T11:20:43.248Z,16.69
2017-09-09T11:21:43.827Z,16.68
2017-09-09T11:22:44.406Z,16.72
2017-09-09T11:23:44.983Z,16.78
2017-09-09T11:24:45.560Z,16.93
2017-09-09T11:25:46.141Z,17.05
2017-09-09T11:26:46.718Z,17.26
2017-09-09T11:27:47.297Z,17.26
2017-09-09T11:28:47.887Z,17.19
2017-09-09T11:29:48.466Z,17.30
2017-09-09T11:30:49.045Z,17.51
2017-09-09T11:31:49.626Z,17.57
2017-09-09T11:32:50.215Z,17.49
2017-09-09T11:33:50.781Z,17.59
2017-09-09T11:34:51.360Z,17.94
2017-09-09T11:35:51.939Z,17.97
2017-09-09T11:36:52.518Z,18.13
2017-09-09T11:37:53.097Z,18.29
2017-09-09T11:38:53.682Z,18.15
2017-09-09T11:39:54.255Z,18.26
2017-09-09T11:40:54.834Z,18.28
2017-09-09T11:41:55.411Z,18.34
2017-09-09T11:42:55.991Z,18.50
2017-09-09T11:43:56.583Z,18.11
2017-09-09T11:44:57.170Z,18.05
2017-09-09T11:45:57.758Z,18.15
2017-09-09T11:46:58.339Z,18.33
2017-09-09T11:47:58.964Z,18.40
2017-09-09T11:48:59.521Z,18.07
2017-09-09T11:50:00.099Z,18.01
2017-09-09T11:51:00.679Z,18.10
2017-09-09T11:52:01.258Z,18.29
2017-09-09T11:53:01.835Z,18.28
2017-09-09T11:54:02.414Z,18.15
2017-09-09T11:55:03.001Z,18.10
2017-09-09T11:56:03.580Z,18.13
2017-09-09T11:57:04.160Z,18.23
2017-09-09T11:58:04.739Z,18.35
2017-09-09T11:59:05.319Z,18.56
2017-09-09T12:00:05.898Z,18.86
2017-09-09T12:01:06.479Z,18.66
2017-09-09T12:02:07.058Z,18.73
2017-09-09T12:03:07.637Z,18.77
2017-09-09T12:04:08.214Z,18.74
2017-09-09T12:05:08.794Z,18.74
2017-09-09T12:06:09.373Z,18.50
2017-09-09T12:07:09.954Z,18.59
2017-09-09T12:08:10.532Z,18.59
2017-09-09T12:09:11.112Z,18.35
2017-09-09T12:10:11.692Z,18.29
2017-09-09T12:11:12.273Z,18.16
2017-09-09T12:12:12.852Z,17.94
2017-09-09T12:13:13.432Z,18.01
2017-09-09T12:14:14.012Z,18.07
2017-09-09T12:15:14.591Z,18.03
2017-09-09T12:16:15.169Z,18.08
2017-09-09T12:17:15.749Z,17.97
2017-09-09T12:18:16.330Z,17.98
2017-09-09T12:19:16.909Z,18.07
2017-09-09T12:20:17.500Z,18.03
2017-09-09T12:21:18.081Z,17.97
2017-09-09T12:22:18.672Z,18.13
2017-09-09T12:23:19.250Z,18.11
2017-09-09T12:24:19.827Z,18.13
2017-09-09T12:25:20.415Z,18.13
2017-09-09T12:26:20.988Z,18.07
2017-09-09T12:27:21.578Z,18.28
2017-09-09T12:28:22.157Z,18.38
2017-09-09T12:29:22.746Z,18.22
2017-09-09T12:30:23.317Z,18.45
2017-09-09T12:31:23.898Z,18.38
2017-09-09T12:32:24.478Z,18.07
2017-09-09T12:33:25.069Z,18.13
2017-09-09T12:34:25.656Z,18.13
2017-09-09T12:35:26.239Z,18.07
2017-09-09T12:36:26.833Z,18.15
2017-09-09T12:37:27.411Z,18.20
2017-09-09T12:38:27.991Z,18.10
2017-09-09T12:39:28.568Z,18.10
2017-09-09T12:40:29.148Z,17.92
2017-09-09T12:41:29.729Z,17.86
2017-09-09T12:42:30.307Z,17.71
2017-09-09T12:43:30.885Z,17.68
2017-09-09T12:44:31.463Z,17.80
2017-09-09T12:45:32.043Z,17.83
2017-09-09T12:46:32.622Z,17.79
2017-09-09T12:47:33.201Z,17.80
2017-09-09T12:48:33.791Z,17.70
2017-09-09T12:49:34.370Z,17.57
2017-09-09T12:50:34.959Z,17.45
2017-09-09T12:51:35.536Z,17.27
2017-09-09T12:52:36.115Z,17.44
2017-09-09T12:53:36.693Z,17.33
2017-09-09T12:54:37.272Z,17.29
2017-09-09T12:55:37.853Z,17.23
2017-09-09T12:56:38.430Z,17.16
2017-09-09T12:57:39.008Z,17.11
2017-09-09T12:58:39.588Z,17.01
2017-09-09T12:59:40.167Z,17.05